Details for Eastern Airways at EGPC




Go Back


Latest METAR
Local Time

EGPC 022050Z AUTO 30011KT 9999 NCD 01/00 Q1007
02/04/2020, 22:22:56

Description
Results
Eastern Airways Logo
Number of Pilots based at EGPC
0 Pilots Based here
Number of Eastern Airways Flights Departed from EGPC
0 Flights Departed
Number of Eastern Airways Flights Arrived at EGPC
0 Flights Arrived
Number of Eastern Airways Schedules Departing from EGPC
3 Schedules
Number of Eastern Airways Schedules Arriving at EGPC
3 Schedules
Number of Eastern Airways Schedules Departing from EGPC availible today
2 Schedules Today
Number of Eastern Airways Schedules Arriving at EGPC availible today
2 Schedules Today
Average Landing Rate at EGPC
0 fpm
Eastern Airways Average Landing Rate at EGPC
0 fpm
Total Fuel Purchased at EGPC by Eastern Airways
0.00 kgs / 0.00 lbs

Pilots Based at EGPC


Pilot ID
Pilot Name
Pilot Rank
No. of Flights
No. of Flying Hours
There are no pilots assigned to this hub!   Will you be the first?